Weather

Vsebine: Paragliding sitesCurrent conditionsCurrent conditions (amateur)Radar rainfal imageMeteo stationsPanoramic cameras


Current conditions (official report)

Show amateur stations

Click on a specific station to see its location

Location Weather conditions Temperature Wind Air pressure Last updated Geopedia
    °C direction speed (m/s) gusts (m/s) hPa    
Babno Polje 19   - - 2018-07-19 09:04:00
Babno Polje (756 m) 5   - - 2016-01-12 07:40:00
Bilje Nova Gorica 24   3 4 1013 2018-07-19 09:04:00
Bilje pri Novi Gorici 21   2 - 1014 2018-07-19 08:42:00
Blegoš 18   - - 2018-07-19 09:04:00
Bohinjska Češnjica 18   - - 2018-07-19 09:04:00
Boršt Gorenja vas 19   - 1 1014 2018-07-19 08:34:00
Bovec 20   - 2 1014 2018-07-19 08:34:00
Breginj 21   - - 2018-07-19 09:04:00
Bukovski vrh 22   - - 2018-07-19 09:04:00
Celje 23   1 3 1014 2018-07-19 09:04:00
Cerkniško jezero 20   - - 2018-07-19 09:05:00
Črnomelj 19   - - 1014 2018-07-19 08:42:00
Davča 20   - - 2018-07-19 09:04:00
Dobliče Črnomelj 22   - 1 1014 2018-07-19 09:05:00
Dolenje Ajdovščina 21   - 1 2018-07-19 09:03:00
Gačnik 24   1 1 2018-07-19 09:04:00
Godnje 24   3 5 2018-07-19 09:04:00
Gornji Grad 22   - - 2018-07-19 09:04:00
Hočko Pohorje 22   - - 2018-07-19 09:04:00
Hrastnik 20   - 1 1014 2018-07-19 08:36:00
Idrija 17   - - 2018-07-19 09:04:00
Ilirska Bistrica 17   1 2 2018-07-19 08:33:00
Iskrba 18   1 1 2018-07-19 09:04:00
Jeronim 22   - - 2018-07-19 09:04:00
Jeruzalem 23   - - 2018-07-19 09:04:00
Jezersko 20   - - 2018-07-19 09:05:00
Juršče   - - 2016-09-13 14:33:00
Kamniška Bistrica 19   - - 2018-07-19 09:04:00
Kanin 11   - - 2018-07-19 09:04:00
Katarina nad Ljubljano 19   - - 2018-07-19 08:42:00
Kočevje 19   - 1 2018-07-19 09:04:00
Koper Kapitanija 26   2 2 1013 2018-07-19 08:38:00
Korensko sedlo 16   - - 2018-07-19 09:04:00
Kraj. park Goričko 22   2 5 2018-07-19 09:05:00
Kranj 22   - - 2018-07-19 09:04:00
Kredarica 9   2 4 2018-07-19 09:04:00
Krn 22   - - 2018-07-19 09:03:00
Krško 21   1 2 1015 2018-07-19 08:50:00
Krvavec 14   5 9 2018-07-19 09:03:00
Kubed 25   - - 2018-07-19 09:03:00
Kum 18   5 7 2018-07-19 09:03:00
Lendava 22   1 3 1014 2018-07-19 08:34:00
Let. E. Rusjana Maribor 21   1 1 1014 2018-07-19 08:34:00
Let. J. Pučnika Lj. 0   2 3 1011 2015-11-26 11:03:00
Let. J. Pučnika Ljubljana 20   1 2 1014 2018-07-19 09:03:00
Letališče Cerklje ob Krki 21   1 2 1014 2018-07-19 09:03:00
Letališče Edvarda Rusjana Maribor 20   1 - 1014 2018-07-19 08:42:00
Letališče Jožeta Pučnika Ljubljana 18   1 - 1015 2018-07-19 08:42:00
Letališče Lesce 23   1 4 1013 2018-07-19 09:05:00
Letališče Portorož 27   1 3 1013 2018-07-19 09:02:00
Lisca 21   2 4 2018-07-19 09:03:00
Lisca (943 m) 9   5 12 2016-03-29 14:02:00
Litija 18   - - 2018-07-19 09:03:00
Ljubljana 21   - 2 1014 2018-07-19 09:04:00
Logarska dolina 15   - - 2018-07-19 09:03:00
Logatec 20   - - 2018-07-19 09:03:00
Luka Koper 25   2 3 2018-07-19 08:34:00
Malkovec 20   1 3 1015 2018-07-19 08:34:00
Maribor 22   2 4 2018-07-19 09:05:00
Maribor - Tabor 22   - 1 2018-07-19 08:34:00
Marinča vas 22   - - 2018-07-19 09:04:00
Metlika 21   - - 2018-07-19 09:03:00
Mežica 18   - - 2018-07-19 09:03:00
Miklavž na Gorjancih 19   - - 2018-07-19 09:03:00
Murska Sobota 24   1 4 1014 2018-07-19 09:03:00
Nanos 19   2 3 2018-07-19 09:03:00
Nova Gorica 28   - 1 2018-07-19 08:35:00
Nova vas - Bloke 21   - - 2018-07-19 09:03:00
Novo mesto 21   2 3 1014 2018-07-19 09:03:00
Osilnica 19   - - 2018-07-19 09:03:00
Otlica 19   - 1 2018-07-19 09:03:00
Otlica (965 m) 7   4 7 2016-03-31 08:24:00
Park Škocj. jame 22   1 3 1014 2018-07-19 09:02:00
Pasja ravan 21   1 3 2018-07-19 09:03:00
Pavličevo sedlo 17   - - 2018-07-19 09:03:00
Piran-ocean. boja 25   1 2 2018-07-19 08:38:00
Planina pod Golico 20   - - 2018-07-19 09:03:00
Podčetrtek 20   2 3 1014 2018-07-19 09:04:00
Podnanos 24   1 2 2018-07-19 09:03:00
Postojna 18   1 1 1014 2018-07-19 09:05:00
Predel 18   - - 2018-07-19 09:03:00
Ptuj 22   - 1 2018-07-19 09:03:00
Ptuj - Terme -2   2 3 2017-01-19 14:35:00
Radegunda 21   - - 2018-07-19 09:04:00
Radenci 21   - - 1015 2018-07-19 08:34:00
Rateče 14   - - 2018-07-19 08:42:00
Rateče (864 m) 19   - 1 2018-07-19 09:05:00
Ratitovec 15   6 9 2018-07-19 09:05:00
Ravne na Koroškem 21   2 5 2018-07-19 08:34:00
Rogaška Slatina 21   1 2 2018-07-19 09:05:00
Rogla 16   4 9 2018-07-19 09:05:00
Rogla (1492 m) -11   4 7 2016-01-18 10:32:00
Rudno polje 17   1 2 2018-07-19 09:05:00
Rudno polje (1347 m) -2   1 3 2015-10-20 07:36:00
Sevno 21   - - 2018-07-19 09:05:00
Slavnik 21   3 4 2018-07-19 09:05:00
Slovenj Gradec 16   - - 2018-07-19 08:42:00
Slovenske Konjice 25   - - 2018-07-19 09:03:00
Sviščaki 19   2 4 2018-07-19 09:05:00
Šebreljski vrh 21   - - 2018-07-19 09:05:00
Šmartno pri Slovenj Gradcu 20   3 5 2018-07-19 09:05:00
Tatre 22   - - 2018-07-19 09:05:00
Tolmin - Volče 20   1 2 2018-07-19 09:05:00
Topol 20   - - 2018-07-19 09:05:00
Trebnje 22   - - 2018-07-19 09:05:00
Trije Kralji na Pohorju 18   - - 2018-07-19 09:05:00
Trojane - Limovce 22   2 3 1013 2018-07-19 09:05:00
Uršlja gora 14   5 13 2018-07-19 09:05:00
Vedrijan 25   - - 2018-07-19 09:05:00
Velenje 24   - - 2018-07-19 09:05:00
Velike Lašče 22   1 1 2018-07-19 09:05:00
Vogel 18   1 2 2018-07-19 09:05:00
Vojsko 18   - - 2018-07-19 08:42:00
Vrbanski plato -2   2 3 2016-12-07 11:23:00
Vrhnika 21   2 3 2018-07-19 09:05:00
Vršič 16   - - 2018-07-19 09:05:00
Zadlog 18   - - 2018-07-19 09:04:00
Zelenica 17   - - 2018-07-19 09:05:00
Zgornja Kapla 19   3 5 2018-07-19 09:03:00
Zgornja Radovna 15   - - 2018-07-19 09:05:00
Zgornja Sorica 23   - - 2018-07-19 09:05:00
Source: Slovenian Environmental Agency, meteo.si